Hlavní strana
METAR-TAF:

METAR-TAF

Letiště :

Auburn, Alabama, Spojené státy americké

zeměpisná šířka: 32-37N, zeměpisná délka: 085-26W, výška: 236 m

Aktuální stav počasí

Zpráva byla vytvořena před 23 minutami, v 10:56 UTC
Bezvětří
Teplota 21°C
Vlhkost vzduchu 100%
Tlak 1022 hPa
Viditelnost: 16.1 km
Jasno

METAR: KAUO 241056Z AUTO 00000KT 10SM CLR 21/21 A3019 RMK AO2 SLP231 T02110211

Čas: 06:19 (11:19 UTC)


TAF: chybějící

Stav a předpovědi počasí z více než 4 000 letišť (zprávy METAR a TAF).

Červené a žluté tečky na mapě představují dostupné meteorologické stanice.

Když kurzor umístíte na tečku, zobrazí se název stanice.

Pak kliknutím zobrazíte stav a předpověď počasí.

Chcete-li změnit mapu, kliknutím na zelené tlačítko se znaménkem +mapu přiblížíte, kliknutím na zelené tlačítko se znaménkem – mapu oddálíte a kliknutím na zelené šipky přejdete na sousední mapy.


METAR-TAF: